Time;durP1;ratioP1;P1;durP2;ratioP2;P2;SDS_P1;SDS_P2;PMS_P1;PMS_P2;Temp;Humidity;BMP_temperature;BMP_pressure;BME280_temperature;BME280_humidity;BME280_pressure;Samples;Min_cycle;Max_cycle;Signal;HPM_P1;HPM_P2
2022/06/26 00:00:22;;;;;;;;;;;23.90;99.90;;;;;;5034695;28;19936;-70
2022/06/26 00:02:48;;;;;;;;;;;23.90;99.90;;;;;;5028733;28;20378;-70
2022/06/26 00:05:13;;;;;;;;;;;23.90;99.90;;;;;;5033859;28;20446;-70
2022/06/26 00:07:39;;;;;;;;;;;23.90;99.90;;;;;;5033460;28;19913;-70
2022/06/26 00:10:05;;;;;;;;;;;23.90;99.90;;;;;;5033671;28;19935;-70
2022/06/26 00:12:31;;;;;;;;;;;23.90;99.90;;;;;;5034589;28;19917;-70
2022/06/26 00:14:57;;;;;;;;;;;23.90;99.90;;;;;;5025085;28;19914;-70
2022/06/26 00:17:22;;;;;;;;;;;23.90;99.90;;;;;;5025955;28;20397;-70
2022/06/26 00:19:48;;;;;;;;;;;23.90;99.90;;;;;;5033587;28;20421;-71
2022/06/26 00:22:14;;;;;;;;;;;23.90;99.90;;;;;;5033131;28;19974;-70
2022/06/26 00:24:42;;;;;;;;;;;23.90;99.90;;;;;;5034118;28;20373;-70
2022/06/26 00:27:07;;;;;;;;;;;23.80;99.90;;;;;;5033681;28;19913;-70
2022/06/26 00:29:33;;;;;;;;;;;23.80;99.90;;;;;;5033098;28;20386;-70
2022/06/26 00:31:59;;;;;;;;;;;23.90;99.90;;;;;;5031882;28;19921;-70
2022/06/26 00:34:25;;;;;;;;;;;23.80;99.90;;;;;;5033046;28;19917;-70
2022/06/26 00:36:51;;;;;;;;;;;23.80;99.90;;;;;;5033507;28;19915;-70
2022/06/26 00:39:16;;;;;;;;;;;23.80;99.90;;;;;;5033119;28;20000;-70
2022/06/26 00:41:42;;;;;;;;;;;23.80;99.90;;;;;;5036499;28;19929;-70
2022/06/26 00:44:14;;;;;;;;;;;23.80;99.90;;;;;;5033087;28;19940;-70
2022/06/26 00:46:40;;;;;;;;;;;23.70;99.90;;;;;;5033740;28;20469;-71
2022/06/26 00:49:06;;;;;;;;;;;23.70;99.90;;;;;;5032914;28;19909;-70
2022/06/26 00:51:31;;;;;;;;;;;23.70;99.90;;;;;;5033090;28;19925;-70
2022/06/26 00:53:57;;;;;;;;;;;23.70;99.90;;;;;;5023680;28;19913;-70
2022/06/26 00:56:22;;;;;;;;;;;23.70;99.90;;;;;;5025245;28;20114;-70
2022/06/26 00:58:48;;;;;;;;;;;23.70;99.90;;;;;;5032903;28;19917;-70
2022/06/26 01:01:13;;;;;;;;;;;23.70;99.90;;;;;;5029725;28;19925;-70
2022/06/26 01:03:39;;;;;;;;;;;23.70;99.90;;;;;;5032546;28;20641;-71
2022/06/26 01:06:07;;;;;;;;;;;23.70;99.90;;;;;;5021702;28;20326;-70
2022/06/26 01:08:36;;;;;;;;;;;23.70;99.90;;;;;;5026646;28;19983;-70
2022/06/26 01:11:17;;;;;;;;;;;23.70;99.90;;;;;;5032539;28;19949;-70
2022/06/26 01:13:45;;;;;;;;;;;23.70;99.90;;;;;;5032912;28;20011;-70
2022/06/26 01:16:13;;;;;;;;;;;23.70;99.90;;;;;;5032604;28;19909;-70
2022/06/26 01:18:39;;;;;;;;;;;23.70;99.90;;;;;;5032952;28;19952;-70
2022/06/26 01:21:05;;;;;;;;;;;23.70;99.90;;;;;;5032393;28;19917;-70
2022/06/26 01:23:30;;;;;;;;;;;23.60;99.90;;;;;;5032481;28;19967;-70
2022/06/26 01:25:56;;;;;;;;;;;23.60;99.90;;;;;;5032440;28;19913;-70
2022/06/26 01:28:22;;;;;;;;;;;23.60;99.90;;;;;;5032037;28;19917;-70
2022/06/26 01:30:47;;;;;;;;;;;23.60;99.90;;;;;;5029942;28;19917;-70
2022/06/26 01:33:13;;;;;;;;;;;23.60;99.90;;;;;;5020571;28;20464;-70
2022/06/26 01:35:39;;;;;;;;;;;23.60;99.90;;;;;;5021058;28;19913;-70
2022/06/26 01:38:15;;;;;;;;;;;23.60;99.90;;;;;;5032070;28;19913;-70
2022/06/26 01:40:41;;;;;;;;;;;23.50;99.90;;;;;;5032114;28;20168;-70
2022/06/26 01:43:08;;;;;;;;;;;23.50;99.90;;;;;;5032172;28;19917;-70
2022/06/26 01:45:40;;;;;;;;;;;23.60;99.90;;;;;;5017079;28;19917;-70
2022/06/26 01:48:06;;;;;;;;;;;23.50;99.90;;;;;;5029877;28;19920;-71
2022/06/26 01:50:31;;;;;;;;;;;23.50;99.90;;;;;;5031843;28;19937;-70
2022/06/26 01:52:57;;;;;;;;;;;23.50;99.90;;;;;;5032248;28;19913;-70
2022/06/26 01:55:22;;;;;;;;;;;23.50;99.90;;;;;;5030045;28;19913;-71
2022/06/26 01:57:48;;;;;;;;;;;23.40;99.90;;;;;;5017521;28;20451;-70
2022/06/26 02:00:14;;;;;;;;;;;23.40;99.90;;;;;;5030942;28;19917;-70
2022/06/26 02:02:39;;;;;;;;;;;23.40;99.90;;;;;;5020728;28;19914;-70
2022/06/26 02:05:05;;;;;;;;;;;23.50;99.90;;;;;;5021723;28;19913;-70
2022/06/26 02:07:30;;;;;;;;;;;23.40;99.90;;;;;;5031691;28;19913;-70
2022/06/26 02:15:24;;;;;;;;;;;23.40;99.90;;;;;;5020139;28;20287;-70
2022/06/26 02:17:50;;;;;;;;;;;23.40;99.90;;;;;;5024766;28;19917;-70
2022/06/26 02:20:15;;;;;;;;;;;23.40;99.90;;;;;;5031200;28;19913;-70
2022/06/26 02:22:41;;;;;;;;;;;23.30;99.90;;;;;;5031668;28;19967;-70
2022/06/26 02:25:08;;;;;;;;;;;23.30;99.90;;;;;;5031601;28;19913;-70
2022/06/26 02:27:34;;;;;;;;;;;23.40;99.90;;;;;;5016575;28;19940;-70
2022/06/26 02:30:00;;;;;;;;;;;23.40;99.90;;;;;;5029072;28;19921;-70
2022/06/26 02:32:25;;;;;;;;;;;23.40;99.90;;;;;;5026726;28;19913;-71
2022/06/26 02:34:51;;;;;;;;;;;23.30;99.90;;;;;;5031715;28;20320;-70
2022/06/26 02:37:16;;;;;;;;;;;23.30;99.90;;;;;;5031435;28;20294;-70
2022/06/26 02:39:42;;;;;;;;;;;23.30;99.90;;;;;;5032037;28;19913;-70
2022/06/26 02:42:07;;;;;;;;;;;23.30;99.90;;;;;;5032126;28;20358;-70
2022/06/26 02:44:34;;;;;;;;;;;23.30;99.90;;;;;;5035238;28;19995;-70
2022/06/26 02:47:00;;;;;;;;;;;23.30;99.90;;;;;;5034925;28;20087;-70
2022/06/26 02:49:25;;;;;;;;;;;23.30;99.90;;;;;;5035391;28;20415;-71
2022/06/26 02:51:51;;;;;;;;;;;23.30;99.90;;;;;;5020743;28;19917;-70
2022/06/26 02:54:17;;;;;;;;;;;23.30;99.90;;;;;;5034949;28;20332;-71
2022/06/26 02:56:42;;;;;;;;;;;23.30;99.90;;;;;;5035235;28;20446;-70
2022/06/26 02:59:08;;;;;;;;;;;23.30;99.90;;;;;;5033119;28;19921;-70
2022/06/26 03:01:33;;;;;;;;;;;23.30;99.90;;;;;;5020384;28;19960;-70
2022/06/26 03:03:59;;;;;;;;;;;23.30;99.90;;;;;;5035364;28;19910;-70
2022/06/26 03:06:25;;;;;;;;;;;23.30;99.90;;;;;;5035364;28;19909;-70
2022/06/26 03:08:50;;;;;;;;;;;23.30;99.90;;;;;;5034448;28;19917;-70
2022/06/26 03:11:16;;;;;;;;;;;23.30;99.90;;;;;;5032297;28;20413;-70
2022/06/26 03:13:41;;;;;;;;;;;23.30;99.90;;;;;;5021631;28;19917;-70
2022/06/26 03:16:07;;;;;;;;;;;23.30;99.90;;;;;;5033116;28;20439;-70
2022/06/26 03:18:32;;;;;;;;;;;23.30;99.90;;;;;;5035339;28;19913;-70
2022/06/26 03:20:58;;;;;;;;;;;23.30;99.90;;;;;;5025334;28;19913;-70
2022/06/26 03:26:08;;;;;;;;;;;23.30;99.90;;;;;;5034637;28;19979;-70
2022/06/26 03:28:33;;;;;;;;;;;23.30;99.90;;;;;;5033472;28;20369;-71
2022/06/26 03:30:59;;;;;;;;;;;23.30;99.90;;;;;;5018621;28;19922;-70
2022/06/26 03:33:24;;;;;;;;;;;23.30;99.90;;;;;;5034781;28;19921;-71
2022/06/26 03:35:50;;;;;;;;;;;23.30;99.90;;;;;;5034781;28;19914;-70
2022/06/26 03:38:15;;;;;;;;;;;23.30;99.90;;;;;;5034362;28;20302;-70
2022/06/26 03:40:41;;;;;;;;;;;23.30;99.90;;;;;;5034623;28;20373;-71
2022/06/26 03:43:11;;;;;;;;;;;23.30;99.90;;;;;;5034394;28;19913;-70
2022/06/26 03:45:37;;;;;;;;;;;23.30;99.90;;;;;;5019340;28;19963;-70
2022/06/26 03:48:03;;;;;;;;;;;23.30;99.90;;;;;;5032134;28;19913;-70
2022/06/26 03:50:28;;;;;;;;;;;23.40;99.90;;;;;;5033962;28;19917;-70
2022/06/26 03:52:54;;;;;;;;;;;23.40;99.90;;;;;;5030352;28;19913;-70
2022/06/26 03:55:20;;;;;;;;;;;23.40;99.90;;;;;;5033649;28;19920;-70
2022/06/26 03:57:45;;;;;;;;;;;23.40;99.90;;;;;;5024390;28;19920;-70
2022/06/26 04:00:11;;;;;;;;;;;23.40;99.90;;;;;;5031481;28;20041;-70
2022/06/26 04:02:37;;;;;;;;;;;23.40;99.90;;;;;;5034120;28;19913;-71
2022/06/26 04:05:04;;;;;;;;;;;23.40;99.90;;;;;;5032347;28;19914;-70
2022/06/26 04:07:30;;;;;;;;;;;23.40;99.90;;;;;;5034067;28;19921;-70
2022/06/26 04:09:55;;;;;;;;;;;23.40;99.90;;;;;;5017939;28;19913;-71
2022/06/26 04:12:21;;;;;;;;;;;23.50;99.90;;;;;;5034103;28;20371;-71
2022/06/26 04:14:47;;;;;;;;;;;23.50;99.90;;;;;;5033481;28;19913;-70
2022/06/26 04:17:13;;;;;;;;;;;23.50;99.90;;;;;;5033616;28;19967;-70
2022/06/26 04:19:39;;;;;;;;;;;23.50;99.90;;;;;;5033637;28;20302;-70
2022/06/26 04:22:05;;;;;;;;;;;23.40;99.90;;;;;;5033629;28;19914;-71
2022/06/26 04:24:30;;;;;;;;;;;23.50;99.90;;;;;;5034028;28;19909;-70
2022/06/26 04:26:56;;;;;;;;;;;23.40;99.90;;;;;;5033475;28;19978;-70
2022/06/26 04:29:21;;;;;;;;;;;23.50;99.90;;;;;;5033273;28;19920;-70
2022/06/26 04:31:47;;;;;;;;;;;23.50;99.90;;;;;;5034096;28;19974;-70
2022/06/26 04:34:13;;;;;;;;;;;23.50;99.90;;;;;;5028417;28;19921;-70
2022/06/26 04:36:38;;;;;;;;;;;23.50;99.90;;;;;;5020060;28;19917;-70
2022/06/26 04:39:04;;;;;;;;;;;23.50;99.90;;;;;;5031527;28;19987;-70
2022/06/26 04:41:34;;;;;;;;;;;23.50;99.90;;;;;;5032738;28;19921;-73
2022/06/26 04:44:04;;;;;;;;;;;23.60;99.90;;;;;;5032992;28;20009;-71
2022/06/26 04:46:29;;;;;;;;;;;23.60;99.90;;;;;;5033561;28;19921;-71
2022/06/26 04:48:55;;;;;;;;;;;23.60;99.90;;;;;;5017513;28;20267;-71
2022/06/26 04:51:21;;;;;;;;;;;23.60;99.90;;;;;;5032001;28;20087;-71
2022/06/26 04:53:46;;;;;;;;;;;23.60;99.90;;;;;;5032903;28;19974;-71
2022/06/26 04:56:12;;;;;;;;;;;23.70;99.90;;;;;;5032838;28;19936;-71
2022/06/26 04:58:38;;;;;;;;;;;23.60;99.90;;;;;;5033432;28;20004;-71
2022/06/26 05:01:04;;;;;;;;;;;23.60;99.90;;;;;;5033046;28;19979;-71
2022/06/26 05:03:30;;;;;;;;;;;23.70;99.90;;;;;;5033299;28;19913;-71
2022/06/26 05:05:56;;;;;;;;;;;23.70;99.90;;;;;;5030224;28;19920;-71
2022/06/26 05:08:21;;;;;;;;;;;23.80;99.90;;;;;;5032638;28;20279;-71
2022/06/26 05:10:47;;;;;;;;;;;23.80;99.90;;;;;;5032367;28;19929;-71
2022/06/26 05:13:12;;;;;;;;;;;23.80;99.90;;;;;;5032338;28;20385;-71
2022/06/26 05:15:38;;;;;;;;;;;23.80;99.90;;;;;;5032792;28;19910;-71
2022/06/26 05:18:04;;;;;;;;;;;23.90;99.90;;;;;;5032482;28;19913;-71
2022/06/26 05:20:29;;;;;;;;;;;23.80;99.90;;;;;;5032551;28;19913;-71
2022/06/26 05:22:55;;;;;;;;;;;23.80;99.90;;;;;;5032365;28;19913;-71
2022/06/26 05:25:21;;;;;;;;;;;23.80;99.90;;;;;;5031929;28;19967;-71
2022/06/26 05:27:47;;;;;;;;;;;23.80;99.90;;;;;;5018252;28;19910;-71
2022/06/26 05:30:12;;;;;;;;;;;23.80;99.90;;;;;;5031230;28;19988;-77
2022/06/26 05:32:38;;;;;;;;;;;23.80;99.90;;;;;;5032138;28;20290;-73
2022/06/26 05:35:04;;;;;;;;;;;23.90;99.90;;;;;;5025030;28;19923;-70
2022/06/26 05:37:30;;;;;;;;;;;23.90;99.90;;;;;;5017126;28;20330;-71
2022/06/26 05:39:55;;;;;;;;;;;24.00;99.90;;;;;;5032122;28;19909;-72
2022/06/26 05:42:21;;;;;;;;;;;24.00;99.90;;;;;;5032454;28;19925;-71
2022/06/26 05:44:46;;;;;;;;;;;24.00;99.90;;;;;;5031681;28;20017;-71
2022/06/26 05:47:12;;;;;;;;;;;24.00;99.90;;;;;;5031860;28;19921;-71
2022/06/26 05:49:37;;;;;;;;;;;24.00;99.90;;;;;;5031963;28;19913;-72
2022/06/26 05:52:03;;;;;;;;;;;23.90;99.90;;;;;;5019898;28;20350;-71
2022/06/26 05:54:29;;;;;;;;;;;23.90;99.90;;;;;;5027715;28;19970;-72
2022/06/26 05:56:54;;;;;;;;;;;24.00;99.90;;;;;;5028714;28;19913;-72
2022/06/26 05:59:20;;;;;;;;;;;24.10;99.90;;;;;;5031770;28;19924;-72
2022/06/26 06:01:45;;;;;;;;;;;24.10;99.90;;;;;;5031807;28;19975;-72
2022/06/26 06:04:11;;;;;;;;;;;24.10;99.90;;;;;;5026354;28;19992;-72
2022/06/26 06:06:37;;;;;;;;;;;24.20;99.90;;;;;;5018316;28;20000;-74
2022/06/26 06:09:03;;;;;;;;;;;24.30;99.90;;;;;;5028943;28;19909;-77
2022/06/26 06:11:28;;;;;;;;;;;24.30;99.90;;;;;;5031010;28;19921;-76
2022/06/26 06:13:54;;;;;;;;;;;24.30;99.90;;;;;;5031626;28;20286;-75
2022/06/26 06:16:19;;;;;;;;;;;24.20;99.90;;;;;;5031772;28;19914;-76
2022/06/26 06:18:45;;;;;;;;;;;24.30;99.90;;;;;;5031441;28;19936;-75
2022/06/26 06:21:10;;;;;;;;;;;24.40;99.90;;;;;;5031449;28;20436;-75
2022/06/26 06:23:37;;;;;;;;;;;24.50;99.90;;;;;;5031479;28;19913;-76
2022/06/26 06:26:03;;;;;;;;;;;24.50;99.90;;;;;;5031462;28;20398;-75
2022/06/26 06:28:28;;;;;;;;;;;24.50;99.90;;;;;;5031696;28;19921;-75
2022/06/26 06:30:54;;;;;;;;;;;24.50;99.90;;;;;;5032150;28;19917;-75
2022/06/26 06:33:19;;;;;;;;;;;24.50;99.90;;;;;;5031534;28;19936;-75
2022/06/26 06:35:45;;;;;;;;;;;24.50;99.90;;;;;;5031317;28;19924;-75
2022/06/26 06:38:11;;;;;;;;;;;24.50;99.90;;;;;;5030971;28;19945;-75
2022/06/26 06:40:36;;;;;;;;;;;24.60;99.90;;;;;;5031264;28;19913;-75
2022/06/26 06:43:02;;;;;;;;;;;24.60;99.90;;;;;;5031560;28;19944;-75
2022/06/26 06:45:28;;;;;;;;;;;24.60;99.90;;;;;;5019883;28;19996;-75
2022/06/26 06:47:55;;;;;;;;;;;24.60;99.90;;;;;;5027770;28;19919;-75
2022/06/26 06:50:20;;;;;;;;;;;24.60;99.90;;;;;;5031549;28;19967;-75
2022/06/26 06:52:46;;;;;;;;;;;24.60;99.90;;;;;;5031090;28;20405;-75
2022/06/26 06:55:12;;;;;;;;;;;24.60;99.90;;;;;;5031274;28;19910;-75
2022/06/26 06:57:37;;;;;;;;;;;24.60;99.90;;;;;;5030572;28;20428;-75
2022/06/26 07:00:04;;;;;;;;;;;24.70;99.90;;;;;;5031376;28;19913;-75
2022/06/26 07:02:31;;;;;;;;;;;24.70;99.90;;;;;;5031112;28;20282;-75
2022/06/26 07:04:56;;;;;;;;;;;24.70;99.90;;;;;;5031280;28;19913;-75
2022/06/26 07:07:22;;;;;;;;;;;24.80;99.90;;;;;;5030916;28;19921;-75
2022/06/26 07:09:47;;;;;;;;;;;24.90;99.90;;;;;;5032034;28;20374;-75
2022/06/26 07:12:13;;;;;;;;;;;25.00;99.90;;;;;;5030875;28;19921;-75
2022/06/26 07:14:39;;;;;;;;;;;25.00;99.90;;;;;;5031405;28;19920;-74
2022/06/26 07:17:04;;;;;;;;;;;25.10;99.90;;;;;;5031158;28;19923;-75
2022/06/26 07:19:30;;;;;;;;;;;25.20;99.90;;;;;;5031145;28;19921;-75
2022/06/26 07:21:55;;;;;;;;;;;25.20;99.90;;;;;;5031103;28;19996;-75
2022/06/26 07:24:21;;;;;;;;;;;25.40;99.90;;;;;;5031262;28;19909;-75
2022/06/26 07:26:47;;;;;;;;;;;25.50;99.90;;;;;;5030903;28;19959;-76
2022/06/26 07:29:15;;;;;;;;;;;25.60;99.90;;;;;;5031425;28;19913;-75
2022/06/26 07:31:40;;;;;;;;;;;25.50;99.90;;;;;;5034656;28;19925;-75
2022/06/26 07:34:16;;;;;;;;;;;25.50;99.90;;;;;;5034606;28;19909;-75
2022/06/26 07:36:46;;;;;;;;;;;25.40;99.90;;;;;;5019615;28;20394;-74
2022/06/26 07:39:13;;;;;;;;;;;25.40;99.90;;;;;;5033334;28;19913;-75
2022/06/26 07:41:39;;;;;;;;;;;25.40;99.90;;;;;;5034241;28;20280;-75
2022/06/26 07:44:06;;;;;;;;;;;25.50;99.90;;;;;;5034752;28;19913;-75
2022/06/26 07:46:32;;;;;;;;;;;25.60;99.90;;;;;;5034247;28;20378;-75
2022/06/26 07:48:57;;;;;;;;;;;25.70;99.90;;;;;;5034864;28;19909;-74
2022/06/26 07:51:23;;;;;;;;;;;25.70;99.90;;;;;;5033995;28;20000;-75
2022/06/26 07:53:48;;;;;;;;;;;25.60;99.90;;;;;;5034557;28;19913;-75
2022/06/26 07:56:14;;;;;;;;;;;25.50;99.90;;;;;;5034085;28;19990;-75
2022/06/26 07:58:40;;;;;;;;;;;25.60;99.90;;;;;;5034415;28;20342;-75
2022/06/26 08:01:05;;;;;;;;;;;25.60;99.90;;;;;;5033346;28;20319;-75
2022/06/26 08:03:31;;;;;;;;;;;25.60;99.90;;;;;;5021530;28;20310;-75
2022/06/26 08:05:56;;;;;;;;;;;25.60;99.90;;;;;;5030217;28;19936;-75
2022/06/26 08:08:22;;;;;;;;;;;25.60;99.90;;;;;;5034209;28;19925;-75
2022/06/26 08:10:48;;;;;;;;;;;25.60;99.90;;;;;;5032675;28;19968;-75
2022/06/26 08:13:13;;;;;;;;;;;25.60;99.90;;;;;;5033857;28;20394;-75
2022/06/26 08:15:39;;;;;;;;;;;25.60;99.90;;;;;;5034614;28;19909;-76
2022/06/26 08:18:05;;;;;;;;;;;25.60;99.90;;;;;;5034059;28;19913;-75
2022/06/26 08:20:31;;;;;;;;;;;25.60;99.90;;;;;;5033340;28;20329;-75
2022/06/26 08:22:56;;;;;;;;;;;25.60;99.90;;;;;;5033731;28;19913;-75
2022/06/26 08:25:25;;;;;;;;;;;25.60;99.90;;;;;;5032103;28;19940;-75
2022/06/26 08:27:51;;;;;;;;;;;25.60;99.90;;;;;;5018897;28;20375;-75
2022/06/26 08:30:16;;;;;;;;;;;25.70;99.90;;;;;;5031541;28;19924;-75
2022/06/26 08:32:42;;;;;;;;;;;25.80;99.90;;;;;;5033487;28;20271;-75
2022/06/26 08:35:09;;;;;;;;;;;25.80;99.90;;;;;;5033121;28;19970;-75
2022/06/26 08:37:34;;;;;;;;;;;25.70;99.90;;;;;;5033459;28;19956;-75
2022/06/26 08:40:00;;;;;;;;;;;25.80;99.90;;;;;;5033370;28;20401;-75
2022/06/26 08:42:26;;;;;;;;;;;25.80;99.90;;;;;;5021397;28;20302;-75
2022/06/26 08:44:55;;;;;;;;;;;25.90;99.90;;;;;;5029460;28;20020;-75
2022/06/26 08:47:23;;;;;;;;;;;25.90;99.90;;;;;;5033499;28;19917;-75
2022/06/26 08:49:49;;;;;;;;;;;26.00;99.90;;;;;;5029289;28;19920;-75
2022/06/26 08:52:17;;;;;;;;;;;26.00;99.90;;;;;;5033657;28;19913;-75
2022/06/26 08:54:43;;;;;;;;;;;26.10;99.90;;;;;;5033432;28;19909;-75
2022/06/26 08:57:09;;;;;;;;;;;26.10;99.90;;;;;;5032895;28;20252;-75
2022/06/26 08:59:35;;;;;;;;;;;26.20;99.90;;;;;;5033077;28;19967;-75
2022/06/26 09:02:00;;;;;;;;;;;26.20;99.90;;;;;;5032709;28;20406;-75
2022/06/26 09:04:26;;;;;;;;;;;26.20;99.90;;;;;;5032872;28;19913;-75
2022/06/26 09:06:51;;;;;;;;;;;26.30;99.90;;;;;;5033637;28;19909;-75
2022/06/26 09:09:24;;;;;;;;;;;26.30;99.90;;;;;;5032824;28;19935;-75
2022/06/26 09:11:54;;;;;;;;;;;26.30;99.90;;;;;;5032733;28;19921;-75
2022/06/26 09:14:20;;;;;;;;;;;26.30;99.90;;;;;;5032661;28;19954;-75
2022/06/26 09:16:46;;;;;;;;;;;26.30;99.90;;;;;;5032751;28;19913;-75
2022/06/26 09:19:18;;;;;;;;;;;26.30;99.90;;;;;;5032559;28;19909;-75
2022/06/26 09:21:44;;;;;;;;;;;26.30;99.90;;;;;;5018793;28;19940;-75
2022/06/26 09:24:11;;;;;;;;;;;26.40;99.90;;;;;;5031011;28;19971;-75
2022/06/26 09:26:37;;;;;;;;;;;26.40;99.90;;;;;;5032881;28;20306;-75
2022/06/26 09:29:10;;;;;;;;;;;26.40;99.90;;;;;;5032353;28;19996;-76
2022/06/26 09:31:36;;;;;;;;;;;26.50;99.90;;;;;;5032027;28;19921;-75
2022/06/26 09:34:03;;;;;;;;;;;26.30;99.90;;;;;;5032642;28;19910;-75
2022/06/26 09:36:28;;;;;;;;;;;26.50;99.90;;;;;;5031888;28;19913;-75
2022/06/26 09:38:54;;;;;;;;;;;26.50;99.90;;;;;;5032350;28;20397;-75
2022/06/26 09:41:31;;;;;;;;;;;26.50;99.90;;;;;;5032541;28;20011;-75
2022/06/26 09:43:57;;;;;;;;;;;26.60;99.90;;;;;;5033024;28;19913;-75
2022/06/26 09:46:30;;;;;;;;;;;26.50;99.90;;;;;;5031513;28;19974;-76
2022/06/26 09:48:57;;;;;;;;;;;26.60;99.90;;;;;;5028952;28;19909;-75
2022/06/26 09:51:23;;;;;;;;;;;26.70;99.90;;;;;;5031692;28;19921;-75
2022/06/26 09:53:48;;;;;;;;;;;26.60;99.20;;;;;;5031589;28;19975;-75
2022/06/26 09:56:14;;;;;;;;;;;26.70;99.50;;;;;;5032016;28;19913;-75
2022/06/26 09:58:40;;;;;;;;;;;26.70;99.60;;;;;;5032101;28;19913;-75
2022/06/26 10:06:33;;;;;;;;;;;26.80;98.20;;;;;;5032071;28;19960;-75
2022/06/26 10:09:00;;;;;;;;;;;26.90;96.40;;;;;;5031944;28;19974;-75
2022/06/26 10:11:27;;;;;;;;;;;27.00;95.60;;;;;;5027667;28;19921;-75
2022/06/26 10:13:57;;;;;;;;;;;27.10;95.00;;;;;;5019324;28;20298;-75
2022/06/26 10:16:36;;;;;;;;;;;27.10;94.20;;;;;;5031824;28;19961;-75
2022/06/26 10:19:02;;;;;;;;;;;27.10;95.20;;;;;;5029102;28;19913;-75
2022/06/26 10:21:28;;;;;;;;;;;27.10;95.70;;;;;;5032040;28;19905;-75
2022/06/26 10:24:01;;;;;;;;;;;27.20;95.40;;;;;;5031651;28;19913;-75
2022/06/26 10:26:27;;;;;;;;;;;27.30;94.60;;;;;;5031629;28;19949;-75
2022/06/26 10:29:00;;;;;;;;;;;27.50;94.30;;;;;;5031610;28;20428;-75
2022/06/26 10:31:28;;;;;;;;;;;27.40;94.20;;;;;;5015708;28;19957;-75
2022/06/26 10:33:54;;;;;;;;;;;27.60;94.70;;;;;;5028415;28;19980;-75
2022/06/26 10:36:20;;;;;;;;;;;27.60;92.60;;;;;;5031594;28;20012;-75
2022/06/26 10:38:46;;;;;;;;;;;27.40;93.30;;;;;;5025545;28;19957;-75
2022/06/26 10:44:01;;;;;;;;;;;27.40;94.30;;;;;;5031466;28;19959;-76
2022/06/26 10:46:44;;;;;;;;;;;27.50;94.20;;;;;;5014755;28;19913;-75
2022/06/26 10:49:09;;;;;;;;;;;27.50;93.80;;;;;;5029549;28;19913;-75
2022/06/26 10:51:38;;;;;;;;;;;27.50;91.10;;;;;;5032053;28;19921;-75
2022/06/26 10:54:04;;;;;;;;;;;27.60;91.50;;;;;;5031244;28;19917;-75
2022/06/26 10:56:29;;;;;;;;;;;27.70;90.90;;;;;;5031432;28;20441;-75
2022/06/26 10:59:01;;;;;;;;;;;27.70;90.00;;;;;;5031470;28;19909;-74
2022/06/26 11:01:28;;;;;;;;;;;27.60;90.70;;;;;;5015804;28;20390;-74
2022/06/26 11:03:53;;;;;;;;;;;27.70;91.30;;;;;;5028592;28;19913;-75
2022/06/26 11:06:19;;;;;;;;;;;27.70;91.60;;;;;;5035295;28;19909;-75
2022/06/26 11:08:51;;;;;;;;;;;27.70;91.20;;;;;;5035163;28;19913;-75
2022/06/26 11:11:20;;;;;;;;;;;27.80;92.60;;;;;;5035247;28;19917;-75
2022/06/26 11:13:49;;;;;;;;;;;27.80;93.20;;;;;;5033156;28;19913;-75
2022/06/26 11:16:26;;;;;;;;;;;27.90;91.10;;;;;;5019743;28;19914;-75
2022/06/26 11:18:52;;;;;;;;;;;27.80;92.90;;;;;;5019976;28;19953;-75
2022/06/26 11:21:21;;;;;;;;;;;27.90;93.60;;;;;;5034687;28;19956;-76
2022/06/26 11:23:51;;;;;;;;;;;28.00;92.80;;;;;;5027355;28;19913;-76
2022/06/26 11:26:18;;;;;;;;;;;27.90;93.10;;;;;;5026017;28;20000;-75
2022/06/26 11:28:44;;;;;;;;;;;27.90;94.50;;;;;;5034941;28;20051;-75
2022/06/26 11:31:11;;;;;;;;;;;28.00;92.10;;;;;;5035399;28;20382;-75
2022/06/26 11:33:38;;;;;;;;;;;27.90;93.20;;;;;;5020013;28;19913;-75
2022/06/26 11:36:05;;;;;;;;;;;27.90;93.30;;;;;;5032331;28;20433;-75
2022/06/26 11:38:31;;;;;;;;;;;28.00;94.40;;;;;;5034672;28;19917;-75
2022/06/26 11:41:08;;;;;;;;;;;28.00;92.60;;;;;;5034758;28;19920;-75
2022/06/26 11:43:34;;;;;;;;;;;27.90;94.00;;;;;;5019698;28;20386;-75
2022/06/26 11:46:01;;;;;;;;;;;28.00;93.80;;;;;;5035041;28;19941;-75
2022/06/26 11:48:27;;;;;;;;;;;27.90;95.30;;;;;;5034731;28;19913;-75
2022/06/26 11:50:54;;;;;;;;;;;28.10;93.80;;;;;;5034625;28;19924;-75
2022/06/26 11:53:20;;;;;;;;;;;28.00;94.80;;;;;;5034153;28;19921;-75
2022/06/26 11:55:47;;;;;;;;;;;27.80;96.40;;;;;;5034545;28;19978;-75
2022/06/26 11:58:13;;;;;;;;;;;28.10;93.90;;;;;;5018033;28;19920;-75
2022/06/26 12:00:39;;;;;;;;;;;27.90;94.10;;;;;;5034937;28;19924;-75
2022/06/26 12:03:05;;;;;;;;;;;27.80;95.40;;;;;;5034709;28;19909;-75
2022/06/26 12:05:30;;;;;;;;;;;28.00;95.50;;;;;;5034216;28;19924;-75
2022/06/26 12:07:56;;;;;;;;;;;27.90;95.80;;;;;;5034031;28;19917;-74
2022/06/26 12:10:30;;;;;;;;;;;27.90;95.20;;;;;;5033911;28;19924;-75
2022/06/26 12:12:55;;;;;;;;;;;28.00;95.20;;;;;;5030804;28;19951;-74
2022/06/26 12:15:22;;;;;;;;;;;28.20;96.40;;;;;;5033597;28;19960;-75
2022/06/26 12:18:07;;;;;;;;;;;28.20;95.80;;;;;;5033969;28;19983;-75
2022/06/26 12:20:36;;;;;;;;;;;28.20;97.30;;;;;;5034349;28;20361;-75
2022/06/26 12:23:02;;;;;;;;;;;28.10;97.90;;;;;;5033714;28;19913;-74
2022/06/26 12:25:29;;;;;;;;;;;28.10;97.50;;;;;;5033637;28;19910;-75
2022/06/26 12:27:55;;;;;;;;;;;28.10;98.30;;;;;;5034322;28;19937;-75
2022/06/26 12:30:21;;;;;;;;;;;28.20;97.40;;;;;;5033511;28;19949;-74
2022/06/26 12:32:47;;;;;;;;;;;28.10;97.30;;;;;;5033946;28;19913;-75
2022/06/26 12:35:13;;;;;;;;;;;28.10;97.50;;;;;;5031830;28;19909;-75
2022/06/26 12:37:38;;;;;;;;;;;28.30;98.50;;;;;;5019457;28;19913;-76
2022/06/26 12:40:05;;;;;;;;;;;28.30;99.50;;;;;;5033511;28;19916;-75
2022/06/26 12:42:30;;;;;;;;;;;28.20;99.90;;;;;;5034383;28;20008;-75
2022/06/26 12:44:56;;;;;;;;;;;28.10;99.20;;;;;;5033352;28;20358;-75
2022/06/26 12:47:22;;;;;;;;;;;28.00;99.90;;;;;;5033733;28;19913;-74
2022/06/26 12:49:47;;;;;;;;;;;28.10;99.90;;;;;;5033151;28;20060;-75
2022/06/26 12:52:13;;;;;;;;;;;28.30;99.90;;;;;;5033355;28;20405;-75
2022/06/26 12:54:38;;;;;;;;;;;28.20;99.90;;;;;;5033903;28;20400;-74
2022/06/26 12:57:04;;;;;;;;;;;28.10;99.90;;;;;;5033080;28;19920;-75
2022/06/26 12:59:29;;;;;;;;;;;28.10;99.90;;;;;;5033212;28;19913;-75
2022/06/26 13:01:55;;;;;;;;;;;28.20;99.90;;;;;;5033130;28;19913;-74
2022/06/26 13:04:21;;;;;;;;;;;28.10;99.90;;;;;;5033579;28;19947;-75
2022/06/26 13:06:46;;;;;;;;;;;28.20;99.90;;;;;;5033677;28;19932;-75
2022/06/26 13:09:12;;;;;;;;;;;28.40;99.90;;;;;;5032636;28;19919;-74
2022/06/26 13:11:37;;;;;;;;;;;28.30;99.60;;;;;;5032781;28;20011;-75
2022/06/26 13:14:03;;;;;;;;;;;28.40;99.90;;;;;;5032343;28;19913;-75
2022/06/26 13:16:29;;;;;;;;;;;28.20;99.90;;;;;;5016419;28;19923;-75
2022/06/26 13:18:54;;;;;;;;;;;28.30;99.90;;;;;;5033730;28;19909;-75
2022/06/26 13:21:21;;;;;;;;;;;28.20;99.90;;;;;;5032804;28;19913;-75
2022/06/26 13:23:47;;;;;;;;;;;28.10;99.90;;;;;;5032311;28;19920;-74
2022/06/26 13:26:12;;;;;;;;;;;28.40;99.90;;;;;;5032547;28;19913;-75
2022/06/26 13:28:38;;;;;;;;;;;28.30;99.90;;;;;;5032040;28;19913;-75
2022/06/26 13:31:04;;;;;;;;;;;28.30;99.90;;;;;;5032784;28;19952;-74
2022/06/26 13:33:30;;;;;;;;;;;28.30;99.90;;;;;;5031846;28;19956;-75
2022/06/26 13:35:55;;;;;;;;;;;28.40;99.90;;;;;;5032806;28;19910;-75
2022/06/26 13:38:21;;;;;;;;;;;28.40;99.80;;;;;;5030885;28;19949;-75
2022/06/26 13:40:47;;;;;;;;;;;28.50;98.90;;;;;;5032079;28;20379;-75
2022/06/26 13:43:12;;;;;;;;;;;28.40;98.30;;;;;;5031210;28;19920;-75
2022/06/26 13:45:38;;;;;;;;;;;28.50;99.10;;;;;;5033542;28;19909;-75
2022/06/26 13:48:04;;;;;;;;;;;28.40;99.90;;;;;;5032135;28;19913;-75
2022/06/26 13:50:29;;;;;;;;;;;28.30;99.90;;;;;;5031948;28;19917;-75
2022/06/26 13:52:55;;;;;;;;;;;28.40;99.30;;;;;;5031034;28;19963;-74
2022/06/26 13:55:20;;;;;;;;;;;28.40;99.80;;;;;;5015972;28;19922;-75
2022/06/26 13:57:46;;;;;;;;;;;28.30;99.90;;;;;;5032629;28;19991;-75
2022/06/26 14:00:12;;;;;;;;;;;28.30;99.40;;;;;;5031958;28;19917;-75
2022/06/26 14:02:37;;;;;;;;;;;28.20;99.90;;;;;;5031998;28;19923;-75
2022/06/26 14:05:03;;;;;;;;;;;28.20;99.90;;;;;;5030720;28;20020;-75
2022/06/26 14:07:28;;;;;;;;;;;28.20;99.90;;;;;;5031554;28;19913;-75
2022/06/26 14:09:54;;;;;;;;;;;28.20;99.90;;;;;;5032563;28;19914;-75
2022/06/26 14:12:20;;;;;;;;;;;28.30;99.90;;;;;;5032030;28;19921;-75
2022/06/26 14:14:45;;;;;;;;;;;28.30;99.90;;;;;;5031515;28;19917;-75
2022/06/26 14:17:11;;;;;;;;;;;28.20;99.90;;;;;;5031832;28;19913;-75
2022/06/26 14:19:36;;;;;;;;;;;28.20;99.90;;;;;;5031746;28;19940;-75
2022/06/26 14:27:30;;;;;;;;;;;28.40;99.90;;;;;;5031373;28;19984;-75
2022/06/26 14:29:56;;;;;;;;;;;28.40;99.90;;;;;;5031724;28;19956;-75
2022/06/26 14:32:21;;;;;;;;;;;28.50;99.90;;;;;;5028761;28;19917;-75